createdAt,value
2023-10-13T00:00:42.640Z,100.00
2023-10-13T00:03:16.601Z,100.00
2023-10-13T00:05:46.275Z,100.00
2023-10-13T00:08:14.847Z,100.00
2023-10-13T00:10:44.088Z,100.00
2023-10-13T00:13:14.401Z,100.00
2023-10-13T00:15:47.242Z,100.00
2023-10-13T00:18:15.176Z,100.00
2023-10-13T00:20:49.296Z,100.00
2023-10-13T00:23:21.808Z,100.00
2023-10-13T00:25:57.860Z,100.00
2023-10-13T00:28:27.693Z,100.00
2023-10-13T00:31:01.070Z,100.00
2023-10-13T00:33:28.998Z,100.00
2023-10-13T00:35:59.035Z,100.00
2023-10-13T00:38:28.564Z,100.00
2023-10-13T00:40:56.694Z,100.00
2023-10-13T00:43:41.744Z,100.00
2023-10-13T00:46:13.821Z,100.00
2023-10-13T00:48:53.060Z,100.00
2023-10-13T00:51:33.654Z,100.00
2023-10-13T00:54:09.273Z,100.00
2023-10-13T00:56:42.049Z,100.00
2023-10-13T00:59:11.165Z,100.00
2023-10-13T01:01:42.268Z,100.00
2023-10-13T01:04:10.000Z,100.00
2023-10-13T01:06:38.968Z,100.00
2023-10-13T01:09:14.936Z,100.00
2023-10-13T01:11:45.359Z,100.00
2023-10-13T01:14:12.428Z,100.00
2023-10-13T01:16:44.888Z,100.00
2023-10-13T01:19:13.558Z,100.00
2023-10-13T01:21:42.702Z,100.00
2023-10-13T01:24:12.610Z,100.00
2023-10-13T01:26:41.503Z,100.00
2023-10-13T01:29:15.661Z,100.00
2023-10-13T01:31:49.861Z,100.00
2023-10-13T01:34:23.139Z,100.00
2023-10-13T01:36:52.771Z,100.00
2023-10-13T01:39:22.139Z,100.00
2023-10-13T01:41:56.559Z,100.00
2023-10-13T01:44:25.120Z,100.00
2023-10-13T01:46:52.545Z,100.00
2023-10-13T01:49:23.052Z,100.00
2023-10-13T01:51:50.152Z,100.00
2023-10-13T01:54:18.628Z,100.00
2023-10-13T01:56:46.709Z,100.00
2023-10-13T01:59:14.606Z,100.00
2023-10-13T02:01:42.682Z,100.00
2023-10-13T02:04:11.782Z,100.00
2023-10-13T02:06:38.754Z,100.00
2023-10-13T02:09:14.521Z,100.00
2023-10-13T02:11:42.797Z,100.00
2023-10-13T02:14:13.323Z,100.00
2023-10-13T02:16:40.504Z,100.00
2023-10-13T02:19:09.838Z,100.00
2023-10-13T02:21:40.653Z,100.00
2023-10-13T02:24:14.068Z,100.00
2023-10-13T02:26:41.475Z,100.00
2023-10-13T02:29:09.417Z,100.00
2023-10-13T02:31:38.806Z,100.00
2023-10-13T02:34:09.623Z,100.00
2023-10-13T02:36:37.419Z,100.00
2023-10-13T02:39:08.619Z,100.00
2023-10-13T02:41:38.289Z,100.00
2023-10-13T02:44:07.925Z,100.00
2023-10-13T02:46:37.104Z,100.00
2023-10-13T02:49:12.031Z,100.00
2023-10-13T02:51:43.174Z,100.00
2023-10-13T02:54:12.480Z,100.00
2023-10-13T02:56:49.113Z,100.00
2023-10-13T02:59:21.057Z,100.00
2023-10-13T03:01:48.143Z,100.00
2023-10-13T03:04:24.569Z,100.00
2023-10-13T03:06:51.278Z,100.00
2023-10-13T03:09:19.953Z,100.00
2023-10-13T03:11:49.600Z,100.00
2023-10-13T03:14:26.987Z,100.00
2023-10-13T03:16:55.220Z,100.00
2023-10-13T03:19:33.820Z,100.00
2023-10-13T03:22:08.577Z,100.00
2023-10-13T03:24:36.174Z,100.00
2023-10-13T03:27:10.596Z,100.00
2023-10-13T03:29:39.974Z,100.00
2023-10-13T03:32:13.034Z,100.00
2023-10-13T03:34:54.450Z,100.00
2023-10-13T03:37:38.711Z,100.00
2023-10-13T03:40:17.299Z,100.00
2023-10-13T03:42:58.824Z,100.00
2023-10-13T03:45:26.542Z,100.00
2023-10-13T03:47:54.788Z,100.00
2023-10-13T03:50:30.714Z,100.00
2023-10-13T03:52:59.251Z,100.00
2023-10-13T03:55:28.398Z,100.00
2023-10-13T03:57:56.332Z,100.00
2023-10-13T04:00:27.727Z,100.00
2023-10-13T04:03:07.789Z,100.00
2023-10-13T04:05:45.392Z,100.00
2023-10-13T04:08:31.045Z,100.00
2023-10-13T04:11:17.439Z,100.00
2023-10-13T04:14:02.844Z,100.00
2023-10-13T04:16:37.345Z,100.00
2023-10-13T04:19:17.034Z,100.00
2023-10-13T04:21:58.717Z,100.00
2023-10-13T04:24:45.988Z,100.00
2023-10-13T04:27:45.523Z,100.00
2023-10-13T04:30:20.675Z,100.00
2023-10-13T04:33:07.313Z,100.00
2023-10-13T04:35:43.863Z,100.00
2023-10-13T04:38:20.677Z,100.00
2023-10-13T04:41:00.212Z,100.00
2023-10-13T04:43:56.620Z,100.00
2023-10-13T04:46:37.112Z,100.00
2023-10-13T04:49:11.277Z,100.00
2023-10-13T04:51:54.511Z,100.00
2023-10-13T04:54:35.034Z,100.00
2023-10-13T04:57:20.433Z,100.00
2023-10-13T05:00:02.032Z,100.00
2023-10-13T05:02:56.679Z,100.00
2023-10-13T05:05:46.502Z,100.00
2023-10-13T05:08:32.103Z,100.00
2023-10-13T05:11:31.184Z,100.00
2023-10-13T05:14:16.280Z,100.00
2023-10-13T05:17:01.864Z,100.00
2023-10-13T05:19:47.115Z,100.00
2023-10-13T05:22:32.599Z,100.00
2023-10-13T05:25:17.943Z,100.00
2023-10-13T05:28:07.196Z,100.00
2023-10-13T05:30:52.844Z,100.00
2023-10-13T05:33:38.125Z,100.00
2023-10-13T05:36:30.004Z,100.00
2023-10-13T05:39:15.370Z,100.00
2023-10-13T05:42:00.694Z,100.00
2023-10-13T05:44:38.415Z,100.00
2023-10-13T05:47:45.519Z,100.00
2023-10-13T05:50:30.223Z,100.00
2023-10-13T05:53:15.588Z,100.00
2023-10-13T05:56:00.934Z,100.00
2023-10-13T05:58:46.385Z,100.00
2023-10-13T06:01:33.008Z,100.00
2023-10-13T06:04:18.683Z,100.00
2023-10-13T06:07:04.328Z,100.00
2023-10-13T06:09:54.978Z,100.00
2023-10-13T06:12:40.183Z,100.00
2023-10-13T06:15:25.978Z,100.00
2023-10-13T06:18:14.910Z,100.00
2023-10-13T06:21:00.989Z,100.00
2023-10-13T06:23:46.367Z,100.00
2023-10-13T06:26:43.287Z,100.00
2023-10-13T06:29:10.910Z,100.00
2023-10-13T06:31:38.702Z,100.00
2023-10-13T06:34:07.776Z,100.00
2023-10-13T06:36:36.546Z,100.00
2023-10-13T06:39:18.513Z,100.00
2023-10-13T06:41:46.225Z,100.00
2023-10-13T06:44:17.349Z,100.00
2023-10-13T06:46:44.990Z,100.00
2023-10-13T06:49:15.246Z,100.00
2023-10-13T06:51:43.162Z,100.00
2023-10-13T06:54:20.926Z,100.00
2023-10-13T06:56:52.605Z,100.00
2023-10-13T06:59:20.551Z,100.00
2023-10-13T07:01:49.640Z,100.00
2023-10-13T07:04:19.547Z,100.00
2023-10-13T07:06:50.053Z,100.00
2023-10-13T07:09:40.587Z,100.00
2023-10-13T07:12:17.277Z,100.00
2023-10-13T07:14:53.180Z,100.00
2023-10-13T07:17:25.708Z,100.00
2023-10-13T07:19:56.452Z,100.00
2023-10-13T07:22:26.980Z,100.00
2023-10-13T07:24:54.760Z,100.00
2023-10-13T07:27:26.519Z,100.00
2023-10-13T07:30:14.291Z,100.00
2023-10-13T07:32:47.822Z,100.00
2023-10-13T07:35:21.521Z,100.00
2023-10-13T07:37:53.200Z,100.00
2023-10-13T07:40:40.814Z,100.00
2023-10-13T07:43:11.660Z,100.00
2023-10-13T07:45:39.828Z,100.00
2023-10-13T07:48:13.352Z,100.00
2023-10-13T07:50:42.743Z,100.00
2023-10-13T07:53:23.693Z,100.00
2023-10-13T07:55:56.550Z,99.10
2023-10-13T07:58:26.510Z,99.20
2023-10-13T08:01:07.763Z,100.00
2023-10-13T08:03:48.128Z,100.00
2023-10-13T08:06:22.359Z,98.94
2023-10-13T08:08:55.333Z,99.24
2023-10-13T08:11:35.222Z,99.10
2023-10-13T08:14:22.367Z,98.98
2023-10-13T08:17:00.918Z,99.35
2023-10-13T08:19:33.387Z,100.00
2023-10-13T08:22:24.612Z,100.00
2023-10-13T08:25:16.266Z,100.00
2023-10-13T08:28:26.352Z,100.00
2023-10-13T08:30:54.946Z,100.00
2023-10-13T08:33:26.047Z,99.96
2023-10-13T08:36:11.653Z,99.51
2023-10-13T08:38:52.247Z,98.54
2023-10-13T08:41:32.659Z,97.63
2023-10-13T08:44:05.697Z,95.08
2023-10-13T08:46:53.008Z,94.13
2023-10-13T08:49:24.428Z,92.58
2023-10-13T08:52:06.397Z,91.47
2023-10-13T08:54:40.345Z,90.46
2023-10-13T08:57:22.011Z,90.54
2023-10-13T08:59:56.359Z,90.52
2023-10-13T09:02:44.103Z,89.45
2023-10-13T09:05:32.215Z,88.90
2023-10-13T09:08:10.331Z,88.81
2023-10-13T09:11:01.388Z,88.47
2023-10-13T09:13:44.917Z,87.19
2023-10-13T09:16:18.757Z,84.93
2023-10-13T09:18:48.582Z,85.03
2023-10-13T09:21:46.665Z,84.70
2023-10-13T09:24:34.187Z,86.69
2023-10-13T09:27:06.046Z,86.88
2023-10-13T09:29:39.971Z,87.53
2023-10-13T09:32:12.784Z,88.03
2023-10-13T09:34:42.068Z,88.18
2023-10-13T09:37:12.477Z,87.81
2023-10-13T09:39:45.720Z,86.95
2023-10-13T09:42:18.578Z,86.17
2023-10-13T09:44:52.418Z,86.18
2023-10-13T09:47:30.964Z,84.58
2023-10-13T09:50:04.979Z,82.76
2023-10-13T09:52:33.316Z,82.73
2023-10-13T09:55:19.510Z,82.41
2023-10-13T09:57:58.654Z,82.37
2023-10-13T10:00:44.091Z,82.69
2023-10-13T10:03:30.548Z,83.18
2023-10-13T10:06:05.704Z,84.06
2023-10-13T10:08:35.477Z,83.28
2023-10-13T10:11:09.734Z,84.50
2023-10-13T10:13:44.924Z,84.71
2023-10-13T10:16:15.743Z,84.49
2023-10-13T10:18:43.948Z,83.72
2023-10-13T10:21:12.289Z,83.00
2023-10-13T10:23:41.195Z,82.88
2023-10-13T10:26:12.730Z,81.71
2023-10-13T10:28:43.177Z,81.12
2023-10-13T10:31:13.888Z,80.71
2023-10-13T10:33:42.457Z,80.63
2023-10-13T10:36:15.230Z,79.83
2023-10-13T10:38:55.578Z,80.52
2023-10-13T10:41:31.140Z,80.22
2023-10-13T10:44:03.976Z,77.80
2023-10-13T10:46:39.381Z,77.75
2023-10-13T10:49:09.558Z,77.46
2023-10-13T10:51:44.719Z,75.50
2023-10-13T10:54:21.183Z,74.92
2023-10-13T10:56:53.810Z,75.00
2023-10-13T10:59:26.171Z,73.39
2023-10-13T11:01:53.926Z,73.88
2023-10-13T11:04:26.007Z,73.27
2023-10-13T11:06:56.527Z,72.30
2023-10-13T11:09:37.984Z,72.49
2023-10-13T11:12:25.111Z,73.01
2023-10-13T11:15:13.686Z,74.32
2023-10-13T11:17:49.539Z,74.94
2023-10-13T11:20:26.733Z,74.73
2023-10-13T11:22:54.779Z,75.57
2023-10-13T11:25:31.292Z,74.58
2023-10-13T11:28:00.617Z,75.58
2023-10-13T11:30:43.127Z,75.06
2023-10-13T11:33:12.387Z,75.86
2023-10-13T11:36:02.302Z,76.22
2023-10-13T11:38:36.902Z,73.34
2023-10-13T11:41:12.896Z,71.97
2023-10-13T11:44:13.653Z,70.85
2023-10-13T11:47:03.223Z,70.00
2023-10-13T11:49:36.009Z,69.51
2023-10-13T11:52:18.875Z,68.10
2023-10-13T11:54:48.355Z,67.84
2023-10-13T11:57:20.272Z,67.70
2023-10-13T11:59:54.396Z,68.36
2023-10-13T12:02:41.806Z,68.94
2023-10-13T12:05:28.574Z,68.44
2023-10-13T12:08:04.813Z,68.77
2023-10-13T12:10:40.159Z,68.52
2023-10-13T12:13:09.420Z,69.75
2023-10-13T12:15:49.667Z,71.29
2023-10-13T12:18:24.625Z,70.85
2023-10-13T12:20:52.621Z,70.30
2023-10-13T12:23:22.008Z,70.36
2023-10-13T12:26:06.779Z,71.00
2023-10-13T12:28:41.738Z,70.82
2023-10-13T12:31:12.758Z,72.19
2023-10-13T12:33:42.519Z,71.78
2023-10-13T12:36:27.995Z,72.65
2023-10-13T12:39:13.061Z,73.41
2023-10-13T12:41:58.550Z,72.68
2023-10-13T12:44:43.926Z,71.62
2023-10-13T12:47:29.548Z,70.60
2023-10-13T12:50:08.522Z,69.80
2023-10-13T12:52:37.284Z,68.86
2023-10-13T12:55:10.959Z,66.50
2023-10-13T12:57:45.257Z,65.64
2023-10-13T13:00:22.376Z,66.48
2023-10-13T13:02:54.167Z,66.49
2023-10-13T13:05:29.504Z,66.28
2023-10-13T13:08:01.608Z,66.21
2023-10-13T13:10:37.479Z,65.49
2023-10-13T13:13:06.501Z,64.51
2023-10-13T13:15:34.381Z,64.43
2023-10-13T13:18:11.419Z,63.77
2023-10-13T13:20:54.480Z,63.83
2023-10-13T13:23:27.141Z,63.47
2023-10-13T13:25:57.958Z,63.33
2023-10-13T13:28:31.067Z,63.46
2023-10-13T13:30:59.854Z,63.83
2023-10-13T13:33:27.896Z,64.05
2023-10-13T13:36:00.746Z,64.32
2023-10-13T13:38:33.583Z,64.83
2023-10-13T13:41:03.215Z,63.67
2023-10-13T13:43:39.492Z,61.45
2023-10-13T13:46:10.421Z,60.17
2023-10-13T13:48:38.886Z,60.38
2023-10-13T13:51:15.270Z,62.01
2023-10-13T13:53:46.431Z,62.52
2023-10-13T13:56:17.625Z,62.09
2023-10-13T13:58:46.327Z,62.04
2023-10-13T14:01:15.690Z,61.78
2023-10-13T14:03:51.447Z,61.70
2023-10-13T14:06:24.364Z,61.17
2023-10-13T14:08:55.892Z,61.45
2023-10-13T14:11:44.636Z,62.04
2023-10-13T14:14:30.119Z,61.38
2023-10-13T14:17:04.596Z,60.73
2023-10-13T14:19:33.271Z,59.50
2023-10-13T14:22:07.495Z,59.93
2023-10-13T14:24:36.966Z,59.39
2023-10-13T14:27:10.583Z,59.19
2023-10-13T14:29:41.310Z,58.80
2023-10-13T14:32:13.251Z,58.47
2023-10-13T14:34:42.779Z,58.96
2023-10-13T14:37:13.794Z,58.74
2023-10-13T14:39:41.651Z,58.80
2023-10-13T14:42:09.473Z,59.29
2023-10-13T14:44:38.263Z,59.25
2023-10-13T14:47:07.405Z,59.95
2023-10-13T14:49:36.410Z,59.46
2023-10-13T14:52:04.258Z,60.32
2023-10-13T14:54:35.915Z,59.74
2023-10-13T14:57:04.327Z,59.76
2023-10-13T14:59:34.204Z,60.13
2023-10-13T15:02:03.896Z,61.22
2023-10-13T15:04:34.074Z,60.76
2023-10-13T15:07:03.329Z,61.21
2023-10-13T15:09:31.163Z,61.06
2023-10-13T15:12:00.257Z,61.72
2023-10-13T15:14:27.903Z,62.19
2023-10-13T15:16:56.411Z,61.77
2023-10-13T15:19:24.684Z,61.54
2023-10-13T15:21:54.010Z,62.22
2023-10-13T15:24:26.968Z,62.44
2023-10-13T15:27:03.670Z,62.65
2023-10-13T15:29:38.335Z,62.94
2023-10-13T15:32:27.508Z,63.12
2023-10-13T15:34:55.777Z,63.42
2023-10-13T15:37:26.342Z,63.85
2023-10-13T15:39:54.662Z,63.58
2023-10-13T15:42:22.769Z,63.35
2023-10-13T15:44:52.105Z,63.64
2023-10-13T15:48:08.054Z,63.29
2023-10-13T15:50:07.969Z,63.46
2023-10-13T15:52:35.753Z,63.36
2023-10-13T15:55:05.365Z,63.75
2023-10-13T15:57:37.484Z,63.66
2023-10-13T16:00:24.100Z,63.75
2023-10-13T16:02:53.465Z,63.57
2023-10-13T16:05:23.888Z,64.42
2023-10-13T16:07:53.465Z,64.54
2023-10-13T16:10:23.708Z,64.18
2023-10-13T16:12:51.593Z,63.98
2023-10-13T16:15:22.500Z,64.22
2023-10-13T16:17:50.309Z,64.51
2023-10-13T16:20:18.188Z,64.51
2023-10-13T16:22:46.960Z,64.89
2023-10-13T16:25:19.747Z,64.74
2023-10-13T16:27:50.294Z,64.57
2023-10-13T16:30:20.495Z,65.00
2023-10-13T16:32:50.484Z,65.08
2023-10-13T16:35:19.534Z,64.52
2023-10-13T16:37:48.022Z,65.02
2023-10-13T16:40:20.438Z,64.63
2023-10-13T16:42:48.891Z,64.31
2023-10-13T16:45:20.556Z,64.12
2023-10-13T16:47:50.509Z,64.25
2023-10-13T16:50:18.922Z,63.45
2023-10-13T16:52:48.163Z,63.29
2023-10-13T16:55:18.675Z,63.86
2023-10-13T16:57:48.881Z,63.81
2023-10-13T17:00:17.868Z,63.27
2023-10-13T17:02:47.022Z,62.50
2023-10-13T17:05:19.076Z,62.42
2023-10-13T17:07:48.133Z,62.25
2023-10-13T17:10:16.634Z,62.50
2023-10-13T17:12:44.741Z,62.13
2023-10-13T17:15:20.395Z,62.07
2023-10-13T17:17:48.889Z,62.68
2023-10-13T17:20:18.744Z,63.06
2023-10-13T17:22:47.525Z,63.05
2023-10-13T17:25:15.767Z,63.31
2023-10-13T17:27:43.854Z,62.78
2023-10-13T17:30:12.758Z,63.00
2023-10-13T17:32:40.797Z,63.33
2023-10-13T17:35:13.040Z,62.43
2023-10-13T17:37:44.456Z,61.64
2023-10-13T17:40:16.572Z,60.75
2023-10-13T17:42:48.343Z,60.56
2023-10-13T17:45:16.161Z,60.48
2023-10-13T17:47:44.723Z,59.90
2023-10-13T17:50:14.321Z,59.88
2023-10-13T17:52:43.484Z,59.71
2023-10-13T17:55:12.284Z,59.50
2023-10-13T17:57:41.435Z,58.77
2023-10-13T18:00:15.479Z,59.62
2023-10-13T18:02:43.777Z,60.19
2023-10-13T18:05:12.312Z,59.15
2023-10-13T18:07:41.249Z,59.87
2023-10-13T18:10:13.735Z,59.37
2023-10-13T18:12:41.705Z,59.67
2023-10-13T18:15:10.789Z,59.87
2023-10-13T18:17:40.651Z,59.41
2023-10-13T18:20:11.378Z,59.88
2023-10-13T18:22:39.274Z,60.00
2023-10-13T18:25:13.234Z,59.85
2023-10-13T18:27:43.900Z,59.46
2023-10-13T18:30:13.463Z,58.29
2023-10-13T18:32:42.101Z,59.31
2023-10-13T18:35:12.633Z,58.90
2023-10-13T18:37:42.507Z,58.76
2023-10-13T18:40:13.750Z,57.88
2023-10-13T18:42:44.114Z,57.81
2023-10-13T18:45:12.828Z,57.28
2023-10-13T18:47:41.177Z,57.45
2023-10-13T18:50:09.033Z,57.34
2023-10-13T18:52:36.845Z,57.24
2023-10-13T18:55:06.463Z,57.05
2023-10-13T18:57:34.325Z,57.00
2023-10-13T19:00:05.001Z,57.05
2023-10-13T19:02:34.569Z,56.67
2023-10-13T19:05:02.878Z,56.58
2023-10-13T19:07:32.092Z,56.86
2023-10-13T19:09:59.801Z,56.58
2023-10-13T19:12:27.510Z,57.79
2023-10-13T19:14:55.964Z,57.12
2023-10-13T19:17:25.483Z,57.64
2023-10-13T19:19:53.128Z,58.02
2023-10-13T19:22:20.741Z,57.92
2023-10-13T19:24:48.813Z,58.37
2023-10-13T19:27:16.567Z,58.70
2023-10-13T19:29:44.188Z,58.68
2023-10-13T19:32:11.871Z,59.82
2023-10-13T19:34:43.112Z,59.35
2023-10-13T19:37:10.922Z,60.19
2023-10-13T19:39:43.539Z,60.71
2023-10-13T19:42:11.683Z,60.65
2023-10-13T19:44:41.312Z,61.07
2023-10-13T19:47:09.925Z,60.52
2023-10-13T19:49:38.848Z,61.02
2023-10-13T19:52:07.856Z,61.24
2023-10-13T19:54:35.655Z,61.21
2023-10-13T19:57:05.265Z,61.97
2023-10-13T19:59:32.975Z,62.23
2023-10-13T20:02:00.649Z,62.05
2023-10-13T20:04:28.417Z,61.93
2023-10-13T20:06:56.989Z,62.47
2023-10-13T20:09:26.268Z,62.55
2023-10-13T20:11:53.905Z,62.64
2023-10-13T20:14:23.024Z,63.16
2023-10-13T20:16:51.186Z,63.38
2023-10-13T20:19:19.423Z,63.34
2023-10-13T20:21:48.051Z,63.68
2023-10-13T20:24:16.796Z,63.83
2023-10-13T20:26:46.861Z,64.19
2023-10-13T20:29:17.955Z,64.15
2023-10-13T20:31:48.529Z,64.30
2023-10-13T20:34:16.725Z,64.64
2023-10-13T20:36:44.431Z,65.10
2023-10-13T20:39:24.735Z,65.59
2023-10-13T20:41:53.957Z,65.16
2023-10-13T20:44:27.549Z,65.68
2023-10-13T20:46:57.699Z,65.91
2023-10-13T20:49:27.691Z,66.61
2023-10-13T20:51:55.469Z,66.86
2023-10-13T20:54:23.422Z,67.25
2023-10-13T20:56:51.082Z,67.30
2023-10-13T20:59:20.226Z,68.05
2023-10-13T21:01:48.924Z,67.87
2023-10-13T21:04:17.252Z,68.50
2023-10-13T21:06:45.844Z,68.64
2023-10-13T21:09:20.819Z,69.15
2023-10-13T21:11:49.838Z,69.25
2023-10-13T21:14:17.618Z,69.35
2023-10-13T21:16:46.616Z,69.55
2023-10-13T21:19:14.402Z,70.09
2023-10-13T21:21:42.368Z,70.37
2023-10-13T21:24:11.755Z,70.64
2023-10-13T21:26:39.839Z,70.97
2023-10-13T21:29:08.960Z,70.92
2023-10-13T21:31:38.315Z,71.77
2023-10-13T21:34:08.299Z,72.35
2023-10-13T21:36:39.809Z,72.49
2023-10-13T21:39:11.874Z,72.84
2023-10-13T21:41:39.950Z,73.52
2023-10-13T21:44:08.184Z,72.98
2023-10-13T21:46:37.059Z,73.31
2023-10-13T21:49:07.671Z,73.48
2023-10-13T21:51:37.137Z,73.35
2023-10-13T21:54:08.508Z,73.31
2023-10-13T21:56:37.036Z,73.59
2023-10-13T21:59:04.907Z,74.12
2023-10-13T22:01:45.721Z,73.99
2023-10-13T22:04:21.778Z,74.18
2023-10-13T22:06:51.226Z,74.41
2023-10-13T22:09:19.651Z,74.96
2023-10-13T22:11:49.476Z,75.26
2023-10-13T22:14:18.897Z,75.22
2023-10-13T22:16:46.675Z,75.26
2023-10-13T22:19:14.865Z,75.19
2023-10-13T22:21:42.645Z,75.78
2023-10-13T22:24:14.566Z,75.65
2023-10-13T22:26:44.388Z,75.84
2023-10-13T22:29:12.486Z,76.28
2023-10-13T22:31:41.178Z,76.84
2023-10-13T22:34:09.883Z,76.79
2023-10-13T22:36:38.550Z,77.24
2023-10-13T22:39:16.252Z,77.75
2023-10-13T22:41:45.974Z,77.47
2023-10-13T22:44:19.815Z,77.57
2023-10-13T22:46:48.443Z,77.85
2023-10-13T22:49:16.523Z,77.84
2023-10-13T22:51:44.555Z,78.13
2023-10-13T22:54:16.522Z,77.76
2023-10-13T22:56:45.497Z,78.05
2023-10-13T22:59:13.434Z,78.10
2023-10-13T23:01:44.123Z,78.26
2023-10-13T23:04:15.636Z,77.79
2023-10-13T23:06:47.131Z,77.62
2023-10-13T23:09:25.902Z,77.72
2023-10-13T23:12:03.883Z,78.18
2023-10-13T23:14:33.591Z,77.96
2023-10-13T23:17:01.661Z,78.26
2023-10-13T23:19:29.376Z,77.93
2023-10-13T23:21:57.096Z,77.84
2023-10-13T23:24:24.792Z,77.65
2023-10-13T23:26:52.434Z,77.36
2023-10-13T23:29:21.608Z,77.26
2023-10-13T23:31:49.677Z,77.32
2023-10-13T23:34:17.887Z,77.34
2023-10-13T23:36:45.776Z,77.44
2023-10-13T23:39:13.448Z,77.97
2023-10-13T23:41:42.836Z,77.40
2023-10-13T23:44:15.221Z,77.11
2023-10-13T23:46:45.743Z,77.40
2023-10-13T23:49:16.688Z,77.12
2023-10-13T23:51:54.265Z,76.35
2023-10-13T23:54:22.303Z,76.17
2023-10-13T23:56:50.083Z,75.97
2023-10-13T23:59:27.873Z,76.67
